sensor_id;sensor_type;location;lat;lon;timestamp;temperature;humidity
12811;DHT22;6470;47.654;7.896;2023-04-03T00:01:03;5.30;99.90
12811;DHT22;6470;47.654;7.896;2023-04-03T00:03:29;8.10;99.90
12811;DHT22;6470;47.654;7.896;2023-04-03T00:05:55;7.50;99.90
12811;DHT22;6470;47.654;7.896;2023-04-03T00:08:21;8.70;99.90
12811;DHT22;6470;47.654;7.896;2023-04-03T00:10:47;7.90;99.90
12811;DHT22;6470;47.654;7.896;2023-04-03T00:13:13;7.70;99.90
12811;DHT22;6470;47.654;7.896;2023-04-03T00:19:01;7.60;99.90
12811;DHT22;6470;47.654;7.896;2023-04-03T00:21:27;7.90;99.90
12811;DHT22;6470;47.654;7.896;2023-04-03T00:23:52;8.30;99.90
12811;DHT22;6470;47.654;7.896;2023-04-03T00:26:18;7.80;99.90
12811;DHT22;6470;47.654;7.896;2023-04-03T00:31:10;8.20;99.90
12811;DHT22;6470;47.654;7.896;2023-04-03T00:33:36;7.90;99.90
12811;DHT22;6470;47.654;7.896;2023-04-03T00:36:06;8.80;99.90
12811;DHT22;6470;47.654;7.896;2023-04-03T00:38:32;7.70;99.90
12811;DHT22;6470;47.654;7.896;2023-04-03T00:40:58;8.10;99.90
12811;DHT22;6470;47.654;7.896;2023-04-03T00:43:24;8.80;99.90
12811;DHT22;6470;47.654;7.896;2023-04-03T00:45:56;8.50;99.90
12811;DHT22;6470;47.654;7.896;2023-04-03T00:48:40;8.80;99.90
12811;DHT22;6470;47.654;7.896;2023-04-03T00:51:08;8.40;99.90
12811;DHT22;6470;47.654;7.896;2023-04-03T00:54:13;8.20;99.90
12811;DHT22;6470;47.654;7.896;2023-04-03T00:56:40;8.90;99.90
12811;DHT22;6470;47.654;7.896;2023-04-03T00:59:15;8.60;99.90
12811;DHT22;6470;47.654;7.896;2023-04-03T01:01:42;8.80;99.90
12811;DHT22;6470;47.654;7.896;2023-04-03T01:04:28;9.00;99.90
12811;DHT22;6470;47.654;7.896;2023-04-03T01:06:56;8.90;99.90
12811;DHT22;6470;47.654;7.896;2023-04-03T01:09:23;8.50;99.90
12811;DHT22;6470;47.654;7.896;2023-04-03T01:11:48;8.50;99.90
12811;DHT22;6470;47.654;7.896;2023-04-03T01:14:14;8.00;99.90
12811;DHT22;6470;47.654;7.896;2023-04-03T01:19:14;7.60;99.90
12811;DHT22;6470;47.654;7.896;2023-04-03T01:22:15;7.60;99.90
12811;DHT22;6470;47.654;7.896;2023-04-03T01:24:44;8.00;99.90
12811;DHT22;6470;47.654;7.896;2023-04-03T01:27:12;8.00;99.90
12811;DHT22;6470;47.654;7.896;2023-04-03T01:29:37;5.30;99.90
12811;DHT22;6470;47.654;7.896;2023-04-03T01:32:04;7.70;99.90
12811;DHT22;6470;47.654;7.896;2023-04-03T01:34:31;8.30;99.90
12811;DHT22;6470;47.654;7.896;2023-04-03T01:36:57;5.00;99.90
12811;DHT22;6470;47.654;7.896;2023-04-03T01:39:23;8.10;99.90
12811;DHT22;6470;47.654;7.896;2023-04-03T01:41:49;7.50;99.90
12811;DHT22;6470;47.654;7.896;2023-04-03T01:44:14;7.70;99.90
12811;DHT22;6470;47.654;7.896;2023-04-03T01:46:40;7.60;99.90
12811;DHT22;6470;47.654;7.896;2023-04-03T01:51:33;7.50;99.90
12811;DHT22;6470;47.654;7.896;2023-04-03T01:53:59;6.90;99.90
12811;DHT22;6470;47.654;7.896;2023-04-03T01:56:25;4.90;99.90
12811;DHT22;6470;47.654;7.896;2023-04-03T01:58:50;7.30;99.90
12811;DHT22;6470;47.654;7.896;2023-04-03T02:01:16;4.90;99.90
12811;DHT22;6470;47.654;7.896;2023-04-03T02:03:42;8.00;99.90
12811;DHT22;6470;47.654;7.896;2023-04-03T02:06:08;7.40;99.90
12811;DHT22;6470;47.654;7.896;2023-04-03T02:08:34;7.00;99.90
12811;DHT22;6470;47.654;7.896;2023-04-03T02:11:00;7.40;99.90
12811;DHT22;6470;47.654;7.896;2023-04-03T02:13:25;7.00;99.90
12811;DHT22;6470;47.654;7.896;2023-04-03T02:15:51;6.60;99.90
12811;DHT22;6470;47.654;7.896;2023-04-03T02:18:17;7.20;99.90
12811;DHT22;6470;47.654;7.896;2023-04-03T02:23:09;6.80;99.90
12811;DHT22;6470;47.654;7.896;2023-04-03T02:25:35;6.90;99.90
12811;DHT22;6470;47.654;7.896;2023-04-03T02:28:01;7.00;99.90
12811;DHT22;6470;47.654;7.896;2023-04-03T02:30:26;7.20;99.90
12811;DHT22;6470;47.654;7.896;2023-04-03T02:32:52;6.80;99.90
12811;DHT22;6470;47.654;7.896;2023-04-03T02:35:18;7.00;99.90
12811;DHT22;6470;47.654;7.896;2023-04-03T02:37:44;7.40;99.90
12811;DHT22;6470;47.654;7.896;2023-04-03T02:40:10;6.60;99.90
12811;DHT22;6470;47.654;7.896;2023-04-03T02:42:37;7.40;99.90
12811;DHT22;6470;47.654;7.896;2023-04-03T02:45:03;4.60;99.90
12811;DHT22;6470;47.654;7.896;2023-04-03T02:47:28;7.40;99.90
12811;DHT22;6470;47.654;7.896;2023-04-03T02:49:54;7.50;99.90
12811;DHT22;6470;47.654;7.896;2023-04-03T02:52:20;6.40;99.90
12811;DHT22;6470;47.654;7.896;2023-04-03T02:54:46;4.50;99.90
12811;DHT22;6470;47.654;7.896;2023-04-03T02:57:12;7.20;99.90
12811;DHT22;6470;47.654;7.896;2023-04-03T02:59:38;6.30;99.90
12811;DHT22;6470;47.654;7.896;2023-04-03T03:02:09;7.60;99.90
12811;DHT22;6470;47.654;7.896;2023-04-03T03:04:35;6.70;99.90
12811;DHT22;6470;47.654;7.896;2023-04-03T03:09:27;6.80;99.90
12811;DHT22;6470;47.654;7.896;2023-04-03T03:11:53;6.70;99.90
12811;DHT22;6470;47.654;7.896;2023-04-03T03:14:19;6.30;99.90
12811;DHT22;6470;47.654;7.896;2023-04-03T03:16:44;6.50;99.90
12811;DHT22;6470;47.654;7.896;2023-04-03T03:19:10;6.90;99.90
12811;DHT22;6470;47.654;7.896;2023-04-03T03:21:36;7.30;99.90
12811;DHT22;6470;47.654;7.896;2023-04-03T03:24:02;4.40;99.90
12811;DHT22;6470;47.654;7.896;2023-04-03T03:26:29;7.20;99.90
12811;DHT22;6470;47.654;7.896;2023-04-03T03:28:54;7.00;99.90
12811;DHT22;6470;47.654;7.896;2023-04-03T03:31:20;6.80;99.90
12811;DHT22;6470;47.654;7.896;2023-04-03T03:33:46;6.80;99.90
12811;DHT22;6470;47.654;7.896;2023-04-03T03:36:12;7.20;99.90
12811;DHT22;6470;47.654;7.896;2023-04-03T03:38:39;5.40;99.90
12811;DHT22;6470;47.654;7.896;2023-04-03T03:41:04;4.10;99.90
12811;DHT22;6470;47.654;7.896;2023-04-03T03:43:30;6.60;99.90
12811;DHT22;6470;47.654;7.896;2023-04-03T03:45:56;6.70;99.90
12811;DHT22;6470;47.654;7.896;2023-04-03T03:48:22;6.70;99.90
12811;DHT22;6470;47.654;7.896;2023-04-03T03:50:49;6.70;99.90
12811;DHT22;6470;47.654;7.896;2023-04-03T03:53:15;6.70;99.90
12811;DHT22;6470;47.654;7.896;2023-04-03T03:55:41;6.40;99.90
12811;DHT22;6470;47.654;7.896;2023-04-03T04:00:33;6.20;99.90
12811;DHT22;6470;47.654;7.896;2023-04-03T04:02:58;6.40;99.90
12811;DHT22;6470;47.654;7.896;2023-04-03T04:05:24;6.20;99.90
12811;DHT22;6470;47.654;7.896;2023-04-03T04:07:50;7.10;99.90
12811;DHT22;6470;47.654;7.896;2023-04-03T04:10:16;6.70;99.90
12811;DHT22;6470;47.654;7.896;2023-04-03T04:12:42;6.70;99.90
12811;DHT22;6470;47.654;7.896;2023-04-03T04:15:08;6.50;99.90
12811;DHT22;6470;47.654;7.896;2023-04-03T04:17:34;6.50;99.90
12811;DHT22;6470;47.654;7.896;2023-04-03T04:20:01;6.50;99.90
12811;DHT22;6470;47.654;7.896;2023-04-03T04:22:27;6.50;99.90
12811;DHT22;6470;47.654;7.896;2023-04-03T04:24:53;6.60;99.90
12811;DHT22;6470;47.654;7.896;2023-04-03T04:32:11;6.40;99.90
12811;DHT22;6470;47.654;7.896;2023-04-03T04:34:37;6.80;99.90
12811;DHT22;6470;47.654;7.896;2023-04-03T04:37:03;6.30;99.90
12811;DHT22;6470;47.654;7.896;2023-04-03T04:39:29;3.10;99.90
12811;DHT22;6470;47.654;7.896;2023-04-03T04:41:55;3.90;99.90
12811;DHT22;6470;47.654;7.896;2023-04-03T04:44:21;3.60;99.90
12811;DHT22;6470;47.654;7.896;2023-04-03T04:46:46;6.50;99.90
12811;DHT22;6470;47.654;7.896;2023-04-03T04:49:12;6.60;99.90
12811;DHT22;6470;47.654;7.896;2023-04-03T04:56:31;6.00;99.90
12811;DHT22;6470;47.654;7.896;2023-04-03T04:58:57;5.80;99.90
12811;DHT22;6470;47.654;7.896;2023-04-03T05:01:23;6.10;99.90
12811;DHT22;6470;47.654;7.896;2023-04-03T05:03:48;5.60;99.90
12811;DHT22;6470;47.654;7.896;2023-04-03T05:06:14;5.20;99.90
12811;DHT22;6470;47.654;7.896;2023-04-03T05:08:40;6.40;99.90
12811;DHT22;6470;47.654;7.896;2023-04-03T05:11:06;6.20;99.90
12811;DHT22;6470;47.654;7.896;2023-04-03T05:19:21;6.50;99.90
12811;DHT22;6470;47.654;7.896;2023-04-03T05:21:47;6.00;99.90
12811;DHT22;6470;47.654;7.896;2023-04-03T05:24:13;6.20;99.90
12811;DHT22;6470;47.654;7.896;2023-04-03T05:26:40;6.40;99.90
12811;DHT22;6470;47.654;7.896;2023-04-03T05:29:06;6.20;99.90
12811;DHT22;6470;47.654;7.896;2023-04-03T05:31:32;6.30;99.90
12811;DHT22;6470;47.654;7.896;2023-04-03T05:33:58;6.00;99.90
12811;DHT22;6470;47.654;7.896;2023-04-03T05:38:51;5.90;99.90
12811;DHT22;6470;47.654;7.896;2023-04-03T05:41:17;5.40;99.90
12811;DHT22;6470;47.654;7.896;2023-04-03T05:43:42;6.10;99.90
12811;DHT22;6470;47.654;7.896;2023-04-03T05:46:12;3.50;99.90
12811;DHT22;6470;47.654;7.896;2023-04-03T05:48:39;6.10;99.90
12811;DHT22;6470;47.654;7.896;2023-04-03T05:51:06;3.00;99.90
12811;DHT22;6470;47.654;7.896;2023-04-03T05:53:35;4.90;99.90
12811;DHT22;6470;47.654;7.896;2023-04-03T05:56:03;5.60;99.90
12811;DHT22;6470;47.654;7.896;2023-04-03T05:58:28;6.20;99.90
12811;DHT22;6470;47.654;7.896;2023-04-03T06:00:54;6.50;99.90
12811;DHT22;6470;47.654;7.896;2023-04-03T06:03:20;6.30;99.90
12811;DHT22;6470;47.654;7.896;2023-04-03T06:05:46;6.20;99.90
12811;DHT22;6470;47.654;7.896;2023-04-03T06:08:12;5.40;99.90
12811;DHT22;6470;47.654;7.896;2023-04-03T06:10:38;6.00;99.90
12811;DHT22;6470;47.654;7.896;2023-04-03T06:13:04;5.80;99.90
12811;DHT22;6470;47.654;7.896;2023-04-03T06:18:51;5.70;99.90
12811;DHT22;6470;47.654;7.896;2023-04-03T06:21:17;5.40;99.90
12811;DHT22;6470;47.654;7.896;2023-04-03T06:23:43;4.90;99.90
12811;DHT22;6470;47.654;7.896;2023-04-03T06:31:02;5.10;99.90
12811;DHT22;6470;47.654;7.896;2023-04-03T06:33:28;5.60;99.90
12811;DHT22;6470;47.654;7.896;2023-04-03T06:35:58;5.10;99.90
12811;DHT22;6470;47.654;7.896;2023-04-03T06:38:24;5.50;99.90
12811;DHT22;6470;47.654;7.896;2023-04-03T06:40:50;4.50;99.90
12811;DHT22;6470;47.654;7.896;2023-04-03T06:43:17;5.20;99.90
12811;DHT22;6470;47.654;7.896;2023-04-03T06:45:42;5.70;99.90
12811;DHT22;6470;47.654;7.896;2023-04-03T06:48:08;6.10;99.90
12811;DHT22;6470;47.654;7.896;2023-04-03T06:50:35;5.50;99.90
12811;DHT22;6470;47.654;7.896;2023-04-03T06:59:50;5.70;99.90
12811;DHT22;6470;47.654;7.896;2023-04-03T07:11:04;6.00;99.90
12811;DHT22;6470;47.654;7.896;2023-04-03T07:13:30;6.10;99.90
12811;DHT22;6470;47.654;7.896;2023-04-03T07:15:56;5.90;99.90
12811;DHT22;6470;47.654;7.896;2023-04-03T07:18:23;6.30;99.90
12811;DHT22;6470;47.654;7.896;2023-04-03T07:20:49;6.10;99.90
12811;DHT22;6470;47.654;7.896;2023-04-03T07:23:15;5.40;99.90
12811;DHT22;6470;47.654;7.896;2023-04-03T07:25:44;4.70;99.90
12811;DHT22;6470;47.654;7.896;2023-04-03T07:28:11;5.60;99.90
12811;DHT22;6470;47.654;7.896;2023-04-03T07:30:48;6.00;99.90
12811;DHT22;6470;47.654;7.896;2023-04-03T07:33:16;5.40;99.90
12811;DHT22;6470;47.654;7.896;2023-04-03T07:35:43;5.50;99.90
12811;DHT22;6470;47.654;7.896;2023-04-03T07:38:09;4.80;99.90
12811;DHT22;6470;47.654;7.896;2023-04-03T07:40:36;5.80;99.90
12811;DHT22;6470;47.654;7.896;2023-04-03T07:43:02;5.00;99.90
12811;DHT22;6470;47.654;7.896;2023-04-03T07:45:28;5.70;99.90
12811;DHT22;6470;47.654;7.896;2023-04-03T07:47:54;5.20;99.90
12811;DHT22;6470;47.654;7.896;2023-04-03T07:50:19;4.90;99.90
12811;DHT22;6470;47.654;7.896;2023-04-03T07:52:45;5.70;99.90
12811;DHT22;6470;47.654;7.896;2023-04-03T07:55:11;4.50;99.90
12811;DHT22;6470;47.654;7.896;2023-04-03T07:57:37;4.70;99.90
12811;DHT22;6470;47.654;7.896;2023-04-03T08:00:04;5.20;99.90
12811;DHT22;6470;47.654;7.896;2023-04-03T08:02:30;6.20;99.90
12811;DHT22;6470;47.654;7.896;2023-04-03T08:04:58;3.10;99.90
12811;DHT22;6470;47.654;7.896;2023-04-03T08:10:51;5.90;99.90
12811;DHT22;6470;47.654;7.896;2023-04-03T08:13:18;6.10;99.90
12811;DHT22;6470;47.654;7.896;2023-04-03T08:15:44;5.60;99.90
12811;DHT22;6470;47.654;7.896;2023-04-03T08:18:10;3.50;99.90
12811;DHT22;6470;47.654;7.896;2023-04-03T08:20:38;6.40;99.90
12811;DHT22;6470;47.654;7.896;2023-04-03T08:31:11;7.40;99.90
12811;DHT22;6470;47.654;7.896;2023-04-03T08:33:38;7.70;99.90
12811;DHT22;6470;47.654;7.896;2023-04-03T08:36:06;8.60;99.90
12811;DHT22;6470;47.654;7.896;2023-04-03T08:38:33;6.90;99.90
12811;DHT22;6470;47.654;7.896;2023-04-03T08:41:15;6.70;99.90
12811;DHT22;6470;47.654;7.896;2023-04-03T08:46:11;7.40;99.90
12811;DHT22;6470;47.654;7.896;2023-04-03T08:48:42;7.40;99.90
12811;DHT22;6470;47.654;7.896;2023-04-03T08:51:19;7.60;99.90
12811;DHT22;6470;47.654;7.896;2023-04-03T08:56:18;7.70;99.90
12811;DHT22;6470;47.654;7.896;2023-04-03T08:58:55;6.80;99.90
12811;DHT22;6470;47.654;7.896;2023-04-03T09:01:30;7.10;99.90
12811;DHT22;6470;47.654;7.896;2023-04-03T09:04:00;7.30;99.90
12811;DHT22;6470;47.654;7.896;2023-04-03T09:06:31;7.30;99.90
12811;DHT22;6470;47.654;7.896;2023-04-03T09:09:23;7.20;99.90
12811;DHT22;6470;47.654;7.896;2023-04-03T09:12:19;7.50;99.90
12811;DHT22;6470;47.654;7.896;2023-04-03T09:20:53;4.70;99.90
12811;DHT22;6470;47.654;7.896;2023-04-03T09:23:33;4.30;99.90
12811;DHT22;6470;47.654;7.896;2023-04-03T09:26:06;7.20;99.90
12811;DHT22;6470;47.654;7.896;2023-04-03T09:28:38;7.00;99.90
12811;DHT22;6470;47.654;7.896;2023-04-03T09:31:23;7.20;99.90
12811;DHT22;6470;47.654;7.896;2023-04-03T09:33:58;6.80;99.90
12811;DHT22;6470;47.654;7.896;2023-04-03T09:36:43;6.90;99.90
12811;DHT22;6470;47.654;7.896;2023-04-03T09:39:21;6.30;99.90
12811;DHT22;6470;47.654;7.896;2023-04-03T09:42:03;6.90;99.90
12811;DHT22;6470;47.654;7.896;2023-04-03T09:44:33;3.80;99.90
12811;DHT22;6470;47.654;7.896;2023-04-03T09:46:59;6.40;99.90
12811;DHT22;6470;47.654;7.896;2023-04-03T09:52:26;5.80;99.90
12811;DHT22;6470;47.654;7.896;2023-04-03T09:54:52;6.60;99.90
12811;DHT22;6470;47.654;7.896;2023-04-03T09:57:18;6.30;99.90
12811;DHT22;6470;47.654;7.896;2023-04-03T10:00:00;6.40;99.90
12811;DHT22;6470;47.654;7.896;2023-04-03T10:02:35;6.60;99.90
12811;DHT22;6470;47.654;7.896;2023-04-03T10:08:34;6.70;99.90
12811;DHT22;6470;47.654;7.896;2023-04-03T10:11:16;6.90;99.90
12811;DHT22;6470;47.654;7.896;2023-04-03T10:14:16;7.50;99.90
12811;DHT22;6470;47.654;7.896;2023-04-03T10:16:49;7.10;99.90
12811;DHT22;6470;47.654;7.896;2023-04-03T10:19:40;6.00;99.90
12811;DHT22;6470;47.654;7.896;2023-04-03T10:27:42;3.90;99.90
12811;DHT22;6470;47.654;7.896;2023-04-03T10:36:10;6.50;99.90
12811;DHT22;6470;47.654;7.896;2023-04-03T10:39:11;7.20;99.90
12811;DHT22;6470;47.654;7.896;2023-04-03T10:41:56;6.60;99.90
12811;DHT22;6470;47.654;7.896;2023-04-03T10:53:20;7.00;99.90
12811;DHT22;6470;47.654;7.896;2023-04-03T10:58:29;6.70;99.90
12811;DHT22;6470;47.654;7.896;2023-04-03T11:01:05;7.20;99.90
12811;DHT22;6470;47.654;7.896;2023-04-03T11:03:42;7.40;99.90
12811;DHT22;6470;47.654;7.896;2023-04-03T11:09:34;7.70;99.90
12811;DHT22;6470;47.654;7.896;2023-04-03T11:12:11;8.60;99.90
12811;DHT22;6470;47.654;7.896;2023-04-03T11:14:39;8.10;99.90
12811;DHT22;6470;47.654;7.896;2023-04-03T11:17:26;7.30;99.90
12811;DHT22;6470;47.654;7.896;2023-04-03T11:22:47;8.80;99.90
12811;DHT22;6470;47.654;7.896;2023-04-03T11:25:19;8.80;99.90
12811;DHT22;6470;47.654;7.896;2023-04-03T11:27:54;9.00;99.90
12811;DHT22;6470;47.654;7.896;2023-04-03T11:30:27;8.60;99.90
12811;DHT22;6470;47.654;7.896;2023-04-03T11:35:19;8.30;99.90
12811;DHT22;6470;47.654;7.896;2023-04-03T11:37:51;8.60;99.90
12811;DHT22;6470;47.654;7.896;2023-04-03T11:40:28;8.70;99.90
12811;DHT22;6470;47.654;7.896;2023-04-03T11:43:07;7.70;99.90
12811;DHT22;6470;47.654;7.896;2023-04-03T11:45:40;7.40;99.90
12811;DHT22;6470;47.654;7.896;2023-04-03T11:50:47;8.10;99.90
12811;DHT22;6470;47.654;7.896;2023-04-03T11:55:42;8.10;99.90
12811;DHT22;6470;47.654;7.896;2023-04-03T11:58:13;8.10;99.90
12811;DHT22;6470;47.654;7.896;2023-04-03T12:00:49;7.70;99.90
12811;DHT22;6470;47.654;7.896;2023-04-03T12:09:25;7.20;99.90
12811;DHT22;6470;47.654;7.896;2023-04-03T12:11:52;7.40;99.90
12811;DHT22;6470;47.654;7.896;2023-04-03T12:14:22;7.50;99.90
12811;DHT22;6470;47.654;7.896;2023-04-03T12:16:50;8.60;99.90
12811;DHT22;6470;47.654;7.896;2023-04-03T12:19:36;8.50;99.90
12811;DHT22;6470;47.654;7.896;2023-04-03T12:22:09;8.00;99.90
12811;DHT22;6470;47.654;7.896;2023-04-03T12:24:41;8.60;99.90
12811;DHT22;6470;47.654;7.896;2023-04-03T12:27:38;8.40;99.90
12811;DHT22;6470;47.654;7.896;2023-04-03T12:30:29;7.80;99.90
12811;DHT22;6470;47.654;7.896;2023-04-03T12:33:10;8.60;99.90
12811;DHT22;6470;47.654;7.896;2023-04-03T12:36:07;8.90;99.90
12811;DHT22;6470;47.654;7.896;2023-04-03T12:41:41;9.10;99.90
12811;DHT22;6470;47.654;7.896;2023-04-03T12:44:35;8.70;99.90
12811;DHT22;6470;47.654;7.896;2023-04-03T12:47:16;8.10;99.90
12811;DHT22;6470;47.654;7.896;2023-04-03T12:49:45;7.30;99.90
12811;DHT22;6470;47.654;7.896;2023-04-03T12:52:32;8.00;99.90
12811;DHT22;6470;47.654;7.896;2023-04-03T12:55:00;7.60;99.90
12811;DHT22;6470;47.654;7.896;2023-04-03T12:57:29;8.10;99.90
12811;DHT22;6470;47.654;7.896;2023-04-03T12:59:55;8.00;99.90
12811;DHT22;6470;47.654;7.896;2023-04-03T13:02:31;7.20;99.90
12811;DHT22;6470;47.654;7.896;2023-04-03T13:08:22;8.70;99.90
12811;DHT22;6470;47.654;7.896;2023-04-03T13:10:59;8.40;99.90
12811;DHT22;6470;47.654;7.896;2023-04-03T13:13:26;8.20;99.90
12811;DHT22;6470;47.654;7.896;2023-04-03T13:15:53;5.10;99.90
12811;DHT22;6470;47.654;7.896;2023-04-03T13:24:14;7.60;99.90
12811;DHT22;6470;47.654;7.896;2023-04-03T13:26:40;5.30;99.90
12811;DHT22;6470;47.654;7.896;2023-04-03T13:29:16;7.50;99.90
12811;DHT22;6470;47.654;7.896;2023-04-03T13:31:44;7.50;99.90
12811;DHT22;6470;47.654;7.896;2023-04-03T13:34:17;7.70;99.90
12811;DHT22;6470;47.654;7.896;2023-04-03T13:36:54;7.80;99.90
12811;DHT22;6470;47.654;7.896;2023-04-03T13:39:25;8.10;99.90
12811;DHT22;6470;47.654;7.896;2023-04-03T13:41:54;7.80;99.90
12811;DHT22;6470;47.654;7.896;2023-04-03T13:46:53;4.80;99.90
12811;DHT22;6470;47.654;7.896;2023-04-03T13:49:39;7.50;99.90
12811;DHT22;6470;47.654;7.896;2023-04-03T13:52:32;7.80;99.90
12811;DHT22;6470;47.654;7.896;2023-04-03T13:55:18;7.30;99.90
12811;DHT22;6470;47.654;7.896;2023-04-03T13:57:57;7.10;99.90
12811;DHT22;6470;47.654;7.896;2023-04-03T14:03:31;8.40;99.90
12811;DHT22;6470;47.654;7.896;2023-04-03T14:05:58;4.90;99.90
12811;DHT22;6470;47.654;7.896;2023-04-03T14:08:24;8.10;99.90
12811;DHT22;6470;47.654;7.896;2023-04-03T14:10:50;8.40;99.90
12811;DHT22;6470;47.654;7.896;2023-04-03T14:13:20;8.40;99.90
12811;DHT22;6470;47.654;7.896;2023-04-03T14:15:47;8.40;99.90
12811;DHT22;6470;47.654;7.896;2023-04-03T14:18:15;7.80;99.90
12811;DHT22;6470;47.654;7.896;2023-04-03T14:20:42;7.50;99.90
12811;DHT22;6470;47.654;7.896;2023-04-03T14:23:08;7.90;99.90
12811;DHT22;6470;47.654;7.896;2023-04-03T14:25:34;7.90;99.90
12811;DHT22;6470;47.654;7.896;2023-04-03T14:28:00;7.80;99.90
12811;DHT22;6470;47.654;7.896;2023-04-03T14:30:32;8.40;99.90
12811;DHT22;6470;47.654;7.896;2023-04-03T14:32:58;7.80;99.90
12811;DHT22;6470;47.654;7.896;2023-04-03T14:35:25;8.00;99.90
12811;DHT22;6470;47.654;7.896;2023-04-03T14:37:52;8.20;99.90
12811;DHT22;6470;47.654;7.896;2023-04-03T14:40:23;8.30;99.90
12811;DHT22;6470;47.654;7.896;2023-04-03T14:42:49;8.80;99.90
12811;DHT22;6470;47.654;7.896;2023-04-03T14:45:16;9.20;99.90
12811;DHT22;6470;47.654;7.896;2023-04-03T14:47:51;8.20;99.90
12811;DHT22;6470;47.654;7.896;2023-04-03T14:50:21;8.20;99.90
12811;DHT22;6470;47.654;7.896;2023-04-03T14:52:49;8.60;99.90
12811;DHT22;6470;47.654;7.896;2023-04-03T14:55:17;8.40;99.90
12811;DHT22;6470;47.654;7.896;2023-04-03T14:57:43;8.10;99.90
12811;DHT22;6470;47.654;7.896;2023-04-03T15:00:17;7.50;99.90
12811;DHT22;6470;47.654;7.896;2023-04-03T15:02:44;7.60;99.90
12811;DHT22;6470;47.654;7.896;2023-04-03T15:05:11;6.80;99.90
12811;DHT22;6470;47.654;7.896;2023-04-03T15:07:59;7.60;99.90
12811;DHT22;6470;47.654;7.896;2023-04-03T15:10:30;4.70;99.90
12811;DHT22;6470;47.654;7.896;2023-04-03T15:12:57;7.80;99.90
12811;DHT22;6470;47.654;7.896;2023-04-03T15:15:23;7.70;99.90
12811;DHT22;6470;47.654;7.896;2023-04-03T15:17:54;4.80;99.90
12811;DHT22;6470;47.654;7.896;2023-04-03T15:20:22;7.30;99.90
12811;DHT22;6470;47.654;7.896;2023-04-03T15:22:49;7.30;99.90
12811;DHT22;6470;47.654;7.896;2023-04-03T15:25:15;7.10;99.90
12811;DHT22;6470;47.654;7.896;2023-04-03T15:27:41;4.90;99.90
12811;DHT22;6470;47.654;7.896;2023-04-03T15:30:12;7.60;99.90
12811;DHT22;6470;47.654;7.896;2023-04-03T15:32:39;8.00;99.90
12811;DHT22;6470;47.654;7.896;2023-04-03T15:37:32;8.00;99.90
12811;DHT22;6470;47.654;7.896;2023-04-03T15:39:59;4.70;99.90
12811;DHT22;6470;47.654;7.896;2023-04-03T15:42:25;7.50;99.90
12811;DHT22;6470;47.654;7.896;2023-04-03T15:49:42;7.10;99.90
12811;DHT22;6470;47.654;7.896;2023-04-03T15:52:08;7.30;99.90
12811;DHT22;6470;47.654;7.896;2023-04-03T15:54:34;7.50;99.90
12811;DHT22;6470;47.654;7.896;2023-04-03T16:00:22;8.10;99.90
12811;DHT22;6470;47.654;7.896;2023-04-03T16:02:50;7.20;99.90
12811;DHT22;6470;47.654;7.896;2023-04-03T16:07:44;7.90;99.90
12811;DHT22;6470;47.654;7.896;2023-04-03T16:10:11;7.00;99.90
12811;DHT22;6470;47.654;7.896;2023-04-03T16:12:37;6.60;99.90
12811;DHT22;6470;47.654;7.896;2023-04-03T16:15:04;4.70;99.90
12811;DHT22;6470;47.654;7.896;2023-04-03T16:17:31;6.60;99.90
12811;DHT22;6470;47.654;7.896;2023-04-03T16:19:59;6.90;99.90
12811;DHT22;6470;47.654;7.896;2023-04-03T16:22:26;7.00;99.90
12811;DHT22;6470;47.654;7.896;2023-04-03T16:24:53;4.00;99.90
12811;DHT22;6470;47.654;7.896;2023-04-03T16:27:19;7.30;99.90
12811;DHT22;6470;47.654;7.896;2023-04-03T16:29:45;7.00;99.90
12811;DHT22;6470;47.654;7.896;2023-04-03T16:32:11;6.70;99.90
12811;DHT22;6470;47.654;7.896;2023-04-03T16:34:39;4.30;99.90
12811;DHT22;6470;47.654;7.896;2023-04-03T16:37:06;4.10;99.90
12811;DHT22;6470;47.654;7.896;2023-04-03T16:39:34;7.00;99.90
12811;DHT22;6470;47.654;7.896;2023-04-03T16:42:00;4.40;99.90
12811;DHT22;6470;47.654;7.896;2023-04-03T16:44:26;3.90;99.90
12811;DHT22;6470;47.654;7.896;2023-04-03T16:46:52;4.20;99.90
12811;DHT22;6470;47.654;7.896;2023-04-03T16:51:44;6.80;99.90
12811;DHT22;6470;47.654;7.896;2023-04-03T16:54:11;6.90;99.90
12811;DHT22;6470;47.654;7.896;2023-04-03T16:56:39;7.00;99.90
12811;DHT22;6470;47.654;7.896;2023-04-03T16:59:05;4.20;99.90
12811;DHT22;6470;47.654;7.896;2023-04-03T17:01:31;6.40;99.90
12811;DHT22;6470;47.654;7.896;2023-04-03T17:03:56;6.00;99.90
12811;DHT22;6470;47.654;7.896;2023-04-03T17:06:23;6.70;99.90
12811;DHT22;6470;47.654;7.896;2023-04-03T17:08:50;6.40;99.90
12811;DHT22;6470;47.654;7.896;2023-04-03T17:13:42;7.20;99.90
12811;DHT22;6470;47.654;7.896;2023-04-03T17:16:11;6.70;99.90
12811;DHT22;6470;47.654;7.896;2023-04-03T17:18:38;6.00;99.90
12811;DHT22;6470;47.654;7.896;2023-04-03T17:21:05;6.50;99.90
12811;DHT22;6470;47.654;7.896;2023-04-03T17:23:31;6.50;99.90
12811;DHT22;6470;47.654;7.896;2023-04-03T17:26:00;5.60;99.90
12811;DHT22;6470;47.654;7.896;2023-04-03T17:28:26;6.00;99.90
12811;DHT22;6470;47.654;7.896;2023-04-03T17:30:59;6.90;99.90
12811;DHT22;6470;47.654;7.896;2023-04-03T17:33:26;5.90;99.90
12811;DHT22;6470;47.654;7.896;2023-04-03T17:35:55;6.60;99.90
12811;DHT22;6470;47.654;7.896;2023-04-03T17:38:21;6.10;99.90
12811;DHT22;6470;47.654;7.896;2023-04-03T17:40:47;5.90;99.90
12811;DHT22;6470;47.654;7.896;2023-04-03T17:43:27;6.10;99.90
12811;DHT22;6470;47.654;7.896;2023-04-03T17:49:40;6.00;99.90
12811;DHT22;6470;47.654;7.896;2023-04-03T17:52:06;6.30;99.90
12811;DHT22;6470;47.654;7.896;2023-04-03T17:56:58;6.00;99.90
12811;DHT22;6470;47.654;7.896;2023-04-03T17:59:23;5.00;99.90
12811;DHT22;6470;47.654;7.896;2023-04-03T18:01:50;5.90;99.90
12811;DHT22;6470;47.654;7.896;2023-04-03T18:04:16;5.70;99.90
12811;DHT22;6470;47.654;7.896;2023-04-03T18:10:06;5.50;99.90
12811;DHT22;6470;47.654;7.896;2023-04-03T18:12:34;5.50;99.90
12811;DHT22;6470;47.654;7.896;2023-04-03T18:15:02;5.30;99.90
12811;DHT22;6470;47.654;7.896;2023-04-03T18:17:28;5.30;99.90
12811;DHT22;6470;47.654;7.896;2023-04-03T18:19:54;5.60;99.90
12811;DHT22;6470;47.654;7.896;2023-04-03T18:22:23;4.40;99.90
12811;DHT22;6470;47.654;7.896;2023-04-03T18:24:50;4.50;99.90
12811;DHT22;6470;47.654;7.896;2023-04-03T18:27:19;4.70;99.90
12811;DHT22;6470;47.654;7.896;2023-04-03T18:29:48;5.20;99.90
12811;DHT22;6470;47.654;7.896;2023-04-03T18:32:17;4.30;99.90
12811;DHT22;6470;47.654;7.896;2023-04-03T18:34:43;4.20;99.90
12811;DHT22;6470;47.654;7.896;2023-04-03T18:37:08;5.30;99.90
12811;DHT22;6470;47.654;7.896;2023-04-03T18:39:35;5.00;99.90
12811;DHT22;6470;47.654;7.896;2023-04-03T18:42:12;5.10;99.90
12811;DHT22;6470;47.654;7.896;2023-04-03T18:44:42;4.90;99.90
12811;DHT22;6470;47.654;7.896;2023-04-03T18:47:08;4.60;99.90
12811;DHT22;6470;47.654;7.896;2023-04-03T18:49:36;4.00;99.90
12811;DHT22;6470;47.654;7.896;2023-04-03T18:54:30;3.40;99.90
12811;DHT22;6470;47.654;7.896;2023-04-03T18:59:22;4.20;99.90
12811;DHT22;6470;47.654;7.896;2023-04-03T19:01:49;1.20;99.90
12811;DHT22;6470;47.654;7.896;2023-04-03T19:04:16;1.70;99.90
12811;DHT22;6470;47.654;7.896;2023-04-03T19:06:42;3.80;99.90
12811;DHT22;6470;47.654;7.896;2023-04-03T19:09:09;3.50;99.90
12811;DHT22;6470;47.654;7.896;2023-04-03T19:11:36;0.90;99.90
12811;DHT22;6470;47.654;7.896;2023-04-03T19:14:01;3.50;99.90
12811;DHT22;6470;47.654;7.896;2023-04-03T19:18:53;3.80;99.90